Map

Track Data

SID SEASON NUMBER BASIN SUBBASIN NAME ISO_TIME NATURE LAT LON WMO_WIND WMO_PRES WMO_AGENCY TRACK_TYPE DIST2LAND LANDFALL IFLAG USA_AGENCY USA_ATCF_ID USA_LAT USA_LON USA_RECORD USA_STATUS USA_WIND USA_PRES USA_SSHS USA_R34_NE USA_R34_SE USA_R34_SW USA_R34_NW USA_R50_NE USA_R50_SE USA_R50_SW USA_R50_NW USA_R64_NE USA_R64_SE USA_R64_SW USA_R64_NW USA_POCI USA_ROCI USA_RMW USA_EYE TOKYO_LAT TOKYO_LON TOKYO_GRADE TOKYO_WIND TOKYO_PRES TOKYO_R50_DIR TOKYO_R50_LONG TOKYO_R50_SHORT TOKYO_R30_DIR TOKYO_R30_LONG TOKYO_R30_SHORT TOKYO_LAND CMA_LAT CMA_LON CMA_CAT CMA_WIND CMA_PRES HKO_LAT HKO_LON HKO_CAT HKO_WIND HKO_PRES NEWDELHI_LAT NEWDELHI_LON NEWDELHI_GRADE NEWDELHI_WIND NEWDELHI_PRES NEWDELHI_CI NEWDELHI_DP NEWDELHI_POCI REUNION_LAT REUNION_LON REUNION_TYPE REUNION_WIND REUNION_PRES REUNION_TNUM REUNION_CI REUNION_RMW REUNION_R34_NE REUNION_R34_SE REUNION_R34_SW REUNION_R34_NW REUNION_R50_NE REUNION_R50_SE REUNION_R50_SW REUNION_R50_NW REUNION_R64_NE REUNION_R64_SE REUNION_R64_SW REUNION_R64_NW BOM_LAT BOM_LON BOM_TYPE BOM_WIND BOM_PRES BOM_TNUM BOM_CI BOM_RMW BOM_R34_NE BOM_R34_SE BOM_R34_SW BOM_R34_NW BOM_R50_NE BOM_R50_SE BOM_R50_SW BOM_R50_NW BOM_R64_NE BOM_R64_SE BOM_R64_SW BOM_R64_NW BOM_ROCI BOM_POCI BOM_EYE BOM_POS_METHOD BOM_PRES_METHOD NADI_LAT NADI_LON NADI_CAT NADI_WIND NADI_PRES WELLINGTON_LAT WELLINGTON_LON WELLINGTON_WIND WELLINGTON_PRES DS824_LAT DS824_LON DS824_STAGE DS824_WIND DS824_PRES TD9636_LAT TD9636_LON TD9636_STAGE TD9636_WIND TD9636_PRES TD9635_LAT TD9635_LON TD9635_WIND TD9635_PRES TD9635_ROCI NEUMANN_LAT NEUMANN_LON NEUMANN_CLASS NEUMANN_WIND NEUMANN_PRES MLC_LAT MLC_LON MLC_CLASS MLC_WIND MLC_PRES USA_GUST BOM_GUST BOM_GUST_PER REUNION_GUST REUNION_GUST_PER USA_SEAHGT USA_SEARAD_NE USA_SEARAD_SE USA_SEARAD_SW USA_SEARAD_NW STORM_SPEED STORM_DIR
1960226N20117 1960 52 WP MM NOT_NAMED 1960-08-13 06:00:00 TS 20.4000 116.700 main 273 273 __O___________ -1 20.4000 116.700 1 23 1000 5 145
1960226N20117 1960 52 WP MM NOT_NAMED 1960-08-13 09:00:00 TS 20.1926 116.858 main 301 301 __P___________ -1 20.1926 116.858 1 23 1000 5 145
1960226N20117 1960 52 WP MM NOT_NAMED 1960-08-13 12:00:00 TS 20.0000 117.000 main 326 326 __O___________ -1 20.0000 117.000 1 23 1000 4 145
1960226N20117 1960 52 WP MM NOT_NAMED 1960-08-13 15:00:00 TS 19.8349 117.127 main 351 351 __P___________ -1 19.8349 117.127 1 23 999 4 137
1960226N20117 1960 52 WP MM NOT_NAMED 1960-08-13 18:00:00 TS 19.7000 117.300 main 367 342 __O___________ -1 19.7000 117.300 1 23 999 5 121
1960226N20117 1960 52 WP MM NOT_NAMED 1960-08-13 21:00:00 TS 19.5775 117.578 main 342 309 __P___________ -1 19.5775 117.578 1 23 999 6 109
1960226N20117 1960 52 WP MM NOT_NAMED 1960-08-14 00:00:00 TS 19.5000 117.900 main 309 280 __O___________ -1 19.5000 117.900 1 23 999 6 100
1960226N20117 1960 52 WP MM NOT_NAMED 1960-08-14 03:00:00 TS 19.4775 118.207 main 280 252 __P___________ -1 19.4775 118.207 1 26 999 6 90
1960226N20117 1960 52 WP MM NOT_NAMED 1960-08-14 06:00:00 TS 19.5000 118.500 main 252 225 __O___________ -1 19.5000 118.500 1 29 999 5 84
1960226N20117 1960 52 WP MM NOT_NAMED 1960-08-14 09:00:00 TS 19.5350 118.765 main 225 215 __P___________ -1 19.5350 118.765 1 29 999 5 78
1960226N20117 1960 52 WP MM NOT_NAMED 1960-08-14 12:00:00 TS 19.6000 119.000 main 215 206 __O___________ -1 19.6000 119.000 1 29 999 4 71
1960226N20117 1960 52 WP MM NOT_NAMED 1960-08-14 15:00:00 TS 19.6698 119.170 main 206 199 __P___________ -1 19.6698 119.170 1 29 997 4 62
1960226N20117 1960 52 WP MM NOT_NAMED 1960-08-14 18:00:00 TS 19.8000 119.400 main 199 185 __O___________ -1 19.8000 119.400 1 29 996 7 60
1960226N20117 1960 52 WP MM NOT_NAMED 1960-08-14 21:00:00 TS 20.0126 119.813 main 188 182 __P___________ -1 20.0126 119.813 1 29 996 10 59
1960226N20117 1960 52 WP MM NOT_NAMED 1960-08-15 00:00:00 TS 20.3000 120.300 main 183 145 __O___________ -1 20.3000 120.300 1 29 996 12 57
1960226N20117 1960 52 WP MM NOT_NAMED 1960-08-15 03:00:00 TS 20.6427 120.839 main 145 105 __P___________ -1 20.6427 120.839 1 26 996 11 50
1960226N20117 1960 52 WP MM NOT_NAMED 1960-08-15 06:00:00 TS 21.0000 121.200 main 105 73 __O___________ -1 21.0000 121.200 1 23 996 8 24
1960226N20117 1960 52 WP MM NOT_NAMED 1960-08-15 09:00:00 TS 21.3596 121.186 main 63 33 __P___________ -1 21.3596 121.186 1 23 997 7 335
1960226N20117 1960 52 WP MM NOT_NAMED 1960-08-15 12:00:00 TS 21.6000 120.900 main 33 33 __O___________ -1 21.6000 120.900 1 23 998 7 290
1960226N20117 1960 52 WP MM NOT_NAMED 1960-08-15 15:00:00 TS 21.5951 120.502 main 39 39 __P___________ -1 21.5951 120.502 1 23 998 8 263
1960226N20117 1960 52 WP MM NOT_NAMED 1960-08-15 18:00:00 TS 21.5000 120.000 main 85 85 __O___________ -1 21.5000 120.000 1 23 998 9 261
1960226N20117 1960 52 WP MM NOT_NAMED 1960-08-15 21:00:00 TS 21.4545 119.545 main 131 131 __P___________ -1 21.4545 119.545 1 23 998 9 270
1960226N20117 1960 52 WP MM NOT_NAMED 1960-08-16 00:00:00 TS 21.5000 119.000 main 174 174 __O___________ -1 21.5000 119.000 1 23 999 12 282
1960226N20117 1960 52 WP MM NOT_NAMED 1960-08-16 03:00:00 TS 21.7035 118.299 main 224 143 __P___________ -1 21.7035 118.299 1 999 15 290
1960226N20117 1960 52 WP MM NOT_NAMED 1960-08-16 06:00:00 TS 22.0000 117.500 main 143 __O___________ -1 22.0000 117.500 0 1000 16 292

Digital Typhoon Data and Search

About IBTrACS Database

This database is a web-friendly format of International Best Track Archive for Climate Stewardship (IBTrACS), a global best track data archive curated by NOAA dating back to 1842.

Updated: 2021-10-21